createdAt,value
2019-03-29T04:14:20.692Z,7.10
2019-03-29T04:19:05.816Z,7.10
2019-03-29T04:23:50.796Z,7.10
2019-03-29T04:28:35.879Z,7.10
2019-03-29T04:33:21.300Z,7.20
2019-03-29T04:38:06.516Z,7.20
2019-03-29T04:42:51.692Z,7.20
2019-03-29T04:47:37.135Z,7.20
2019-03-29T04:52:22.274Z,7.20
2019-03-29T04:57:07.335Z,7.10
2019-03-29T05:01:52.456Z,7.00
2019-03-29T05:06:37.658Z,7.00
2019-03-29T05:11:22.660Z,7.10
2019-03-29T05:16:07.751Z,7.10
2019-03-29T05:20:52.923Z,7.20
2019-03-29T05:25:38.070Z,7.30
2019-03-29T05:30:23.494Z,7.40
2019-03-29T05:35:08.628Z,7.40
2019-03-29T05:39:53.795Z,7.60
2019-03-29T05:44:41.432Z,7.70
2019-03-29T05:49:26.652Z,7.90
2019-03-29T05:54:11.796Z,7.90
2019-03-29T05:58:56.967Z,8.00
2019-03-29T06:03:42.084Z,8.20
2019-03-29T06:08:27.516Z,8.40
2019-03-29T06:13:12.627Z,8.60
2019-03-29T06:17:57.769Z,8.80
2019-03-29T06:22:43.311Z,9.00
2019-03-29T06:27:28.331Z,9.10
2019-03-29T06:32:13.638Z,9.00
2019-03-29T06:37:00.704Z,9.30
2019-03-29T06:41:46.111Z,9.50
2019-03-29T06:46:31.303Z,9.60
2019-03-29T06:51:16.499Z,9.70
2019-03-29T06:56:01.585Z,9.70
2019-03-29T07:00:46.892Z,10.00
2019-03-29T07:05:32.256Z,9.90
2019-03-29T07:10:17.525Z,10.10
2019-03-29T07:15:02.615Z,10.10
2019-03-29T07:19:47.868Z,10.30
2019-03-29T07:24:32.957Z,10.60
2019-03-29T07:29:18.341Z,10.50
2019-03-29T07:34:03.626Z,10.60
2019-03-29T07:38:48.857Z,11.30
2019-03-29T07:43:34.082Z,11.40
2019-03-29T07:48:19.314Z,11.30
2019-03-29T07:53:04.346Z,11.80
2019-03-29T07:57:49.624Z,11.60
2019-03-29T08:02:35.217Z,11.80
2019-03-29T08:07:27.035Z,12.00
2019-03-29T08:12:07.314Z,12.10
2019-03-29T08:16:52.590Z,11.80
2019-03-29T08:21:37.886Z,11.90
2019-03-29T08:26:23.061Z,12.10
2019-03-29T08:31:08.203Z,12.30
2019-03-29T08:35:53.448Z,12.50
2019-03-29T08:40:38.565Z,13.30
2019-03-29T08:45:23.918Z,14.30
2019-03-29T08:50:09.139Z,14.60
2019-03-29T08:54:54.432Z,14.60
2019-03-29T08:59:39.527Z,14.30
2019-03-29T09:04:24.686Z,13.70
2019-03-29T09:09:12.041Z,13.50
2019-03-29T09:13:56.707Z,13.40
2019-03-29T09:18:41.900Z,12.90
2019-03-29T09:23:29.926Z,12.50
2019-03-29T09:28:13.826Z,12.60
2019-03-29T09:32:59.176Z,12.90
2019-03-29T09:37:44.475Z,13.30
2019-03-29T09:42:30.498Z,13.40
2019-03-29T09:47:15.933Z,13.70
2019-03-29T09:52:00.973Z,14.40
2019-03-29T09:56:48.303Z,14.90
2019-03-29T10:01:33.705Z,14.90
2019-03-29T10:06:18.925Z,14.50
2019-03-29T10:11:04.052Z,14.60
2019-03-29T10:15:51.324Z,15.00
2019-03-29T10:20:36.054Z,14.80
2019-03-29T10:25:21.796Z,14.80
2019-03-29T10:30:08.677Z,14.70
2019-03-29T10:34:53.916Z,14.50
2019-03-29T10:39:39.198Z,14.50
2019-03-29T10:44:24.438Z,14.40
2019-03-29T10:49:09.624Z,13.90
2019-03-29T10:53:55.009Z,14.10
2019-03-29T10:58:40.285Z,14.30
2019-03-29T11:03:28.540Z,14.40
2019-03-29T11:08:12.406Z,14.20
2019-03-29T11:13:11.332Z,14.00
2019-03-29T11:17:44.538Z,14.00
2019-03-29T11:22:29.791Z,14.20
2019-03-29T11:27:14.908Z,14.40
2019-03-29T11:31:59.999Z,14.40
2019-03-29T11:36:45.176Z,14.70
2019-03-29T11:41:30.386Z,15.10
2019-03-29T11:46:15.552Z,16.00
2019-03-29T11:51:00.878Z,16.80
2019-03-29T11:55:46.188Z,17.00
2019-03-29T12:00:39.035Z,17.60
2019-03-29T12:05:24.172Z,16.60
2019-03-29T12:10:09.453Z,16.80
2019-03-29T12:14:54.490Z,17.10
2019-03-29T12:19:39.795Z,18.40
2019-03-29T12:24:25.317Z,18.90
2019-03-29T12:29:10.414Z,18.30
2019-03-29T12:33:55.702Z,18.00
2019-03-29T12:38:40.902Z,17.40
2019-03-29T12:43:26.020Z,17.00
2019-03-29T12:48:11.573Z,17.80
2019-03-29T12:52:56.628Z,18.50
2019-03-29T12:57:41.804Z,18.90
2019-03-29T13:02:26.974Z,18.90
2019-03-29T13:07:12.067Z,19.20
2019-03-29T13:11:57.215Z,19.30
2019-03-29T13:16:42.385Z,19.10
2019-03-29T13:21:27.564Z,18.30
2019-03-29T13:26:12.821Z,18.00
2019-03-29T13:30:58.143Z,18.10
2019-03-29T13:35:44.626Z,18.50
2019-03-29T13:40:29.859Z,18.50
2019-03-29T13:45:15.164Z,18.60
2019-03-29T13:50:00.443Z,18.20
2019-03-29T13:54:45.409Z,18.10
2019-03-29T13:59:31.944Z,18.00
2019-03-29T14:04:17.395Z,17.90
2019-03-29T14:09:02.426Z,17.70
2019-03-29T14:13:47.550Z,17.90
2019-03-29T14:18:32.638Z,18.00
2019-03-29T14:23:17.994Z,17.80
2019-03-29T14:28:03.152Z,18.20
2019-03-29T14:32:48.434Z,18.10
2019-03-29T14:37:33.828Z,18.40
2019-03-29T14:42:40.570Z,18.60
2019-03-29T14:47:43.292Z,18.10
2019-03-29T14:52:22.867Z,17.90
2019-03-29T14:57:08.160Z,18.10
2019-03-29T15:01:53.270Z,17.90
2019-03-29T15:06:38.481Z,17.50
2019-03-29T15:11:23.630Z,17.20
2019-03-29T15:16:08.790Z,17.40
2019-03-29T15:20:56.931Z,17.50
2019-03-29T15:25:45.796Z,17.50
2019-03-29T15:30:31.029Z,17.30
2019-03-29T15:35:16.119Z,17.20
2019-03-29T15:40:01.309Z,17.00
2019-03-29T15:44:46.473Z,16.90
2019-03-29T15:49:31.603Z,16.60
2019-03-29T15:54:16.825Z,16.30
2019-03-29T15:59:01.902Z,16.10
2019-03-29T16:03:46.990Z,15.80
2019-03-29T16:08:32.151Z,15.50
2019-03-29T16:13:17.203Z,15.40
2019-03-29T16:18:02.333Z,14.90
2019-03-29T16:22:47.750Z,14.90
2019-03-29T16:27:32.880Z,14.90
2019-03-29T16:32:18.144Z,14.70
2019-03-29T16:37:03.243Z,14.70
2019-03-29T16:41:48.277Z,14.90
2019-03-29T16:46:33.403Z,14.80
2019-03-29T16:51:18.545Z,14.40
2019-03-29T16:56:03.946Z,13.80
2019-03-29T17:00:50.048Z,13.40
2019-03-29T17:05:35.207Z,12.70
2019-03-29T17:10:20.447Z,12.00
2019-03-29T17:15:05.995Z,11.50
2019-03-29T17:19:51.049Z,10.90
2019-03-29T17:24:36.231Z,10.50
2019-03-29T17:29:21.305Z,10.00
2019-03-29T17:34:06.340Z,9.40
2019-03-29T17:38:54.696Z,9.00
2019-03-29T17:43:39.852Z,8.50
2019-03-29T17:48:25.115Z,8.10
2019-03-29T17:53:10.397Z,7.70
2019-03-29T17:57:55.629Z,7.40
2019-03-29T18:02:41.006Z,7.10
2019-03-29T18:07:26.236Z,6.90
2019-03-29T18:12:11.577Z,6.60
2019-03-29T18:16:56.801Z,6.80
2019-03-29T18:21:42.078Z,6.80
2019-03-29T18:26:27.237Z,6.70
2019-03-29T18:31:12.628Z,6.70
2019-03-29T18:35:58.070Z,6.60
2019-03-29T18:40:43.454Z,6.50
2019-03-29T18:45:28.746Z,6.50
2019-03-29T18:50:13.970Z,6.40
2019-03-29T18:54:59.290Z,6.30
2019-03-29T18:59:44.587Z,6.30
2019-03-29T19:04:30.044Z,6.20
2019-03-29T19:09:15.675Z,6.10
2019-03-29T19:14:00.840Z,6.00
2019-03-29T19:18:47.172Z,5.90
2019-03-29T19:23:32.560Z,5.80
2019-03-29T19:28:18.180Z,5.80
2019-03-29T19:33:03.305Z,5.70
2019-03-29T19:37:48.598Z,5.70
2019-03-29T19:42:33.826Z,6.00
2019-03-29T19:47:19.070Z,6.40
2019-03-29T19:52:04.394Z,6.60
2019-03-29T19:56:49.863Z,6.90
2019-03-29T20:01:35.595Z,7.10
2019-03-29T20:06:20.905Z,7.10
2019-03-29T20:11:06.339Z,7.40
2019-03-29T20:15:51.650Z,7.50
2019-03-29T20:20:36.868Z,7.50
2019-03-29T20:25:22.050Z,7.50
2019-03-29T20:30:07.490Z,7.50
2019-03-29T20:34:52.668Z,7.30
2019-03-29T20:39:38.175Z,7.20
2019-03-29T20:44:23.427Z,7.20
2019-03-29T20:49:08.747Z,7.10
2019-03-29T20:53:54.064Z,7.00
2019-03-29T20:58:39.363Z,6.80
2019-03-29T21:03:24.919Z,6.90
2019-03-29T21:08:10.266Z,6.90
2019-03-29T21:12:55.838Z,6.80
2019-03-29T21:17:40.965Z,6.70
2019-03-29T21:22:26.068Z,6.60
2019-03-29T21:27:11.228Z,6.60
2019-03-29T21:31:56.549Z,6.50
2019-03-29T21:36:41.850Z,6.50
2019-03-29T21:41:27.352Z,6.40
2019-03-29T21:46:12.705Z,6.30
2019-03-29T21:50:58.072Z,6.30
2019-03-29T21:55:43.621Z,6.30
2019-03-29T22:00:29.022Z,6.10
2019-03-29T22:05:14.308Z,6.10
2019-03-29T22:09:59.633Z,6.10
2019-03-29T22:14:48.113Z,6.20
2019-03-29T22:19:33.817Z,6.30
2019-03-29T22:24:19.153Z,6.20
2019-03-29T22:29:04.529Z,6.20
2019-03-29T22:33:49.763Z,6.10
2019-03-29T22:38:35.209Z,6.20
2019-03-29T22:43:20.554Z,6.30
2019-03-29T22:48:06.316Z,6.20
2019-03-29T22:52:54.509Z,6.10
2019-03-29T22:57:39.523Z,6.10
2019-03-29T23:02:24.851Z,6.00
2019-03-29T23:07:10.154Z,5.90
2019-03-29T23:11:55.254Z,5.80
2019-03-29T23:16:40.314Z,5.60
2019-03-29T23:21:25.549Z,5.30
2019-03-29T23:26:10.767Z,5.00
2019-03-29T23:30:56.164Z,4.40
2019-03-29T23:35:41.565Z,4.10
2019-03-29T23:40:26.681Z,3.70
2019-03-29T23:45:12.102Z,3.50
2019-03-29T23:49:57.316Z,3.50
2019-03-29T23:54:42.542Z,3.70
2019-03-29T23:59:27.682Z,4.10
